createdAt,value
2023-05-02T00:00:17.868Z,3.17
2023-05-02T00:03:19.960Z,3.35
2023-05-02T00:06:22.166Z,3.08
2023-05-02T00:09:24.245Z,3.33
2023-05-02T00:12:26.306Z,2.90
2023-05-02T00:15:28.316Z,3.90
2023-05-02T00:18:30.382Z,4.00
2023-05-02T00:21:33.062Z,3.00
2023-05-02T00:24:35.249Z,2.75
2023-05-02T00:27:37.270Z,2.53
2023-05-02T00:30:45.566Z,3.10
2023-05-02T00:33:47.755Z,2.90
2023-05-02T00:36:50.414Z,3.38
2023-05-02T00:39:52.407Z,2.90
2023-05-02T00:42:54.549Z,3.42
2023-05-02T00:45:56.637Z,2.97
2023-05-02T00:48:58.860Z,3.65
2023-05-02T00:52:00.955Z,3.30
2023-05-02T00:55:03.673Z,3.58
2023-05-02T00:58:07.421Z,3.78
2023-05-02T01:01:28.214Z,4.45
2023-05-02T01:04:36.762Z,4.83
2023-05-02T01:07:45.024Z,5.30
2023-05-02T01:10:53.237Z,6.20
2023-05-02T01:13:56.244Z,5.70
2023-05-02T01:16:59.046Z,6.60
2023-05-02T01:20:06.151Z,6.30
2023-05-02T01:23:17.484Z,5.63
2023-05-02T01:26:22.526Z,6.13
2023-05-02T01:29:25.092Z,5.10
2023-05-02T01:32:28.187Z,4.70
2023-05-02T01:35:31.142Z,4.90
2023-05-02T01:38:34.881Z,4.97
2023-05-02T01:41:38.016Z,4.97
2023-05-02T01:44:40.758Z,4.85
2023-05-02T01:47:44.786Z,4.72
2023-05-02T01:50:47.816Z,4.87
2023-05-02T01:53:50.714Z,5.00
2023-05-02T01:56:52.958Z,4.82
2023-05-02T01:59:57.242Z,4.90
2023-05-02T02:02:59.799Z,4.53
2023-05-02T02:06:03.889Z,5.20
2023-05-02T02:09:06.172Z,4.55
2023-05-02T02:12:26.287Z,5.10
2023-05-02T02:15:28.960Z,4.57
2023-05-02T02:18:32.952Z,5.03
2023-05-02T02:21:36.044Z,4.60
2023-05-02T02:24:39.236Z,5.07
2023-05-02T02:27:41.639Z,5.25
2023-05-02T02:30:43.656Z,4.93
2023-05-02T02:33:45.856Z,4.70
2023-05-02T02:36:54.063Z,5.28
2023-05-02T02:40:00.915Z,5.07
2023-05-02T02:43:12.868Z,4.97
2023-05-02T02:46:29.667Z,5.33
2023-05-02T02:49:47.326Z,5.05
2023-05-02T02:52:59.065Z,5.20
2023-05-02T02:56:05.146Z,5.22
2023-05-02T02:59:15.068Z,4.95
2023-05-02T03:02:18.858Z,5.88
2023-05-02T03:05:21.712Z,5.72
2023-05-02T03:08:24.260Z,5.20
2023-05-02T03:11:27.673Z,5.05
2023-05-02T03:14:30.452Z,5.63
2023-05-02T03:17:32.537Z,6.00
2023-05-02T03:20:34.663Z,5.57
2023-05-02T03:23:37.287Z,5.50
2023-05-02T03:26:39.642Z,5.53
2023-05-02T03:29:44.971Z,5.53
2023-05-02T03:32:47.861Z,6.78
2023-05-02T03:35:50.190Z,5.88
2023-05-02T03:38:52.317Z,6.05
2023-05-02T03:41:55.238Z,5.53
2023-05-02T03:44:59.108Z,5.97
2023-05-02T03:48:03.173Z,6.40
2023-05-02T03:51:07.863Z,5.90
2023-05-02T03:54:15.110Z,5.22
2023-05-02T03:57:18.410Z,5.75
2023-05-02T04:00:20.737Z,5.55
2023-05-02T04:03:30.793Z,5.20
2023-05-02T04:06:35.761Z,6.30
2023-05-02T04:09:42.167Z,5.07
2023-05-02T04:12:46.507Z,6.20
2023-05-02T04:15:49.445Z,5.40
2023-05-02T04:18:56.119Z,5.60
2023-05-02T04:21:59.654Z,5.75
2023-05-02T04:25:01.797Z,6.93
2023-05-02T04:28:06.326Z,4.95
2023-05-02T04:31:08.605Z,6.63
2023-05-02T04:34:10.743Z,5.90
2023-05-02T04:37:18.192Z,5.30
2023-05-02T04:40:21.723Z,5.63
2023-05-02T04:43:28.007Z,5.45
2023-05-02T04:46:34.592Z,4.80
2023-05-02T04:49:36.890Z,6.20
2023-05-02T04:52:39.014Z,6.45
2023-05-02T04:55:41.148Z,4.97
2023-05-02T04:58:43.480Z,6.40
2023-05-02T05:01:47.438Z,5.30
2023-05-02T05:04:49.698Z,5.60
2023-05-02T05:07:53.908Z,5.82
2023-05-02T05:10:58.516Z,5.13
2023-05-02T05:14:01.312Z,5.15
2023-05-02T05:17:04.073Z,5.57
2023-05-02T05:20:09.504Z,6.15
2023-05-02T05:23:12.988Z,6.30
2023-05-02T05:26:16.109Z,6.65
2023-05-02T05:29:21.338Z,6.25
2023-05-02T05:32:24.372Z,5.60
2023-05-02T05:35:26.555Z,5.30
2023-05-02T05:38:28.762Z,5.40
2023-05-02T05:41:31.460Z,5.78
2023-05-02T05:44:39.179Z,5.85
2023-05-02T05:47:41.459Z,5.67
2023-05-02T05:50:43.899Z,5.73
2023-05-02T05:53:46.144Z,6.03
2023-05-02T05:56:49.325Z,5.50
2023-05-02T05:59:54.254Z,5.70
2023-05-02T06:02:57.066Z,5.47
2023-05-02T06:06:05.362Z,5.93
2023-05-02T06:09:07.504Z,5.82
2023-05-02T06:12:09.735Z,5.15
2023-05-02T06:15:13.034Z,6.28
2023-05-02T06:18:15.952Z,5.83
2023-05-02T06:21:18.518Z,5.45
2023-05-02T06:24:20.737Z,5.18
2023-05-02T06:27:22.820Z,5.00
2023-05-02T06:30:25.349Z,5.40
2023-05-02T06:33:27.969Z,6.20
2023-05-02T06:36:30.320Z,5.50
2023-05-02T06:39:33.305Z,5.97
2023-05-02T06:42:35.422Z,5.35
2023-05-02T06:45:37.619Z,5.80
2023-05-02T06:48:39.799Z,4.67
2023-05-02T06:51:42.745Z,4.60
2023-05-02T06:54:45.032Z,5.07
2023-05-02T06:57:47.850Z,4.80
2023-05-02T07:00:54.567Z,5.32
2023-05-02T07:03:57.217Z,5.10
2023-05-02T07:06:59.316Z,4.43
2023-05-02T07:10:02.123Z,4.65
2023-05-02T07:13:04.647Z,4.28
2023-05-02T07:16:07.047Z,3.95
2023-05-02T07:19:09.253Z,3.93
2023-05-02T07:22:11.404Z,4.25
2023-05-02T07:25:13.425Z,4.10
2023-05-02T07:28:15.598Z,3.80
2023-05-02T07:31:19.074Z,4.10
2023-05-02T07:34:21.300Z,3.57
2023-05-02T07:37:23.488Z,3.47
2023-05-02T07:40:25.908Z,4.32
2023-05-02T07:43:28.408Z,3.63
2023-05-02T07:46:30.750Z,3.65
2023-05-02T07:49:34.964Z,3.73
2023-05-02T07:52:38.642Z,3.88
2023-05-02T07:55:42.359Z,3.92
2023-05-02T07:58:45.569Z,3.47
2023-05-02T08:01:48.692Z,3.95
2023-05-02T08:04:51.095Z,3.47
2023-05-02T08:07:53.167Z,4.32
2023-05-02T08:10:55.519Z,4.28
2023-05-02T08:13:57.841Z,3.75
2023-05-02T08:17:00.571Z,4.07
2023-05-02T08:20:03.092Z,3.47
2023-05-02T08:23:05.294Z,4.15
2023-05-02T08:26:07.537Z,3.53
2023-05-02T08:29:12.686Z,3.50
2023-05-02T08:32:14.851Z,4.30
2023-05-02T08:35:17.309Z,4.40
2023-05-02T08:38:19.547Z,4.43
2023-05-02T08:41:22.199Z,3.58
2023-05-02T08:44:24.446Z,3.20
2023-05-02T08:47:27.815Z,3.92
2023-05-02T08:50:30.933Z,3.40
2023-05-02T08:53:34.774Z,3.38
2023-05-02T08:56:38.122Z,3.78
2023-05-02T08:59:42.924Z,2.83
2023-05-02T09:02:52.414Z,3.25
2023-05-02T09:06:02.401Z,3.30
2023-05-02T09:09:04.984Z,2.80
2023-05-02T09:12:07.405Z,3.35
2023-05-02T09:15:13.906Z,2.90
2023-05-02T09:18:19.973Z,3.30
2023-05-02T09:21:26.266Z,2.80
2023-05-02T09:24:28.966Z,3.65
2023-05-02T09:27:48.567Z,3.50
2023-05-02T09:30:50.922Z,3.85
2023-05-02T09:33:53.793Z,2.97
2023-05-02T09:36:56.012Z,3.37
2023-05-02T09:40:07.640Z,3.42
2023-05-02T09:43:19.040Z,3.10
2023-05-02T09:46:21.657Z,3.15
2023-05-02T09:49:40.238Z,3.28
2023-05-02T09:53:00.618Z,2.97
2023-05-02T09:56:04.132Z,3.08
2023-05-02T09:59:13.782Z,2.60
2023-05-02T10:02:16.204Z,2.88
2023-05-02T10:05:20.157Z,3.35
2023-05-02T10:08:23.189Z,3.33
2023-05-02T10:11:25.318Z,3.63
2023-05-02T10:14:29.533Z,3.40
2023-05-02T10:17:34.233Z,2.83
2023-05-02T10:20:38.012Z,3.28
2023-05-02T10:23:43.803Z,2.87
2023-05-02T10:26:46.745Z,2.72
2023-05-02T10:29:49.095Z,2.72
2023-05-02T10:32:52.230Z,3.38
2023-05-02T10:35:54.349Z,3.13
2023-05-02T10:38:56.519Z,3.30
2023-05-02T10:41:59.549Z,2.83
2023-05-02T10:45:01.808Z,3.00
2023-05-02T10:48:13.351Z,3.00
2023-05-02T10:51:27.283Z,3.35
2023-05-02T10:54:29.555Z,3.20
2023-05-02T10:57:31.884Z,2.92
2023-05-02T11:00:34.708Z,2.67
2023-05-02T11:03:58.861Z,2.75
2023-05-02T11:07:01.023Z,3.05
2023-05-02T11:10:18.279Z,2.23
2023-05-02T11:13:40.470Z,2.90
2023-05-02T11:17:00.800Z,3.03
2023-05-02T11:20:06.231Z,2.85
2023-05-02T11:23:18.366Z,3.30
2023-05-02T11:26:22.369Z,2.83
2023-05-02T11:29:43.248Z,3.35
2023-05-02T11:32:53.697Z,3.35
2023-05-02T11:35:58.209Z,3.05
2023-05-02T11:39:00.653Z,2.88
2023-05-02T11:42:02.686Z,2.43
2023-05-02T11:45:05.033Z,2.90
2023-05-02T11:48:07.952Z,3.72
2023-05-02T11:51:10.244Z,2.90
2023-05-02T11:54:19.047Z,2.97
2023-05-02T11:57:21.770Z,2.47
2023-05-02T12:00:27.350Z,2.95
2023-05-02T12:03:31.057Z,2.58
2023-05-02T12:06:33.622Z,2.90
2023-05-02T12:09:35.988Z,3.20
2023-05-02T12:12:39.396Z,3.03
2023-05-02T12:15:41.847Z,3.20
2023-05-02T12:18:44.273Z,3.45
2023-05-02T12:21:46.441Z,3.15
2023-05-02T12:24:49.339Z,3.28
2023-05-02T12:28:01.049Z,3.07
2023-05-02T12:31:11.265Z,2.92
2023-05-02T12:34:13.296Z,3.55
2023-05-02T12:37:26.312Z,3.30
2023-05-02T12:40:28.994Z,3.33
2023-05-02T12:43:43.569Z,2.53
2023-05-02T12:46:59.902Z,2.53
2023-05-02T12:50:02.357Z,2.38
2023-05-02T12:53:06.384Z,2.85
2023-05-02T12:56:08.853Z,2.83
2023-05-02T12:59:26.387Z,2.70
2023-05-02T13:02:28.771Z,2.65
2023-05-02T13:05:31.304Z,3.10
2023-05-02T13:08:34.583Z,2.67
2023-05-02T13:11:36.813Z,2.72
2023-05-02T13:14:39.400Z,2.70
2023-05-02T13:17:41.652Z,2.65
2023-05-02T13:20:44.003Z,3.20
2023-05-02T13:23:47.493Z,3.28
2023-05-02T13:26:49.621Z,3.53
2023-05-02T13:29:52.220Z,3.07
2023-05-02T13:32:54.358Z,2.88
2023-05-02T13:35:56.682Z,2.97
2023-05-02T13:38:59.140Z,2.20
2023-05-02T13:42:06.309Z,3.05
2023-05-02T13:45:08.780Z,2.47
2023-05-02T13:48:10.981Z,2.83
2023-05-02T13:51:13.083Z,3.13
2023-05-02T13:54:15.503Z,2.78
2023-05-02T13:57:17.769Z,3.10
2023-05-02T14:00:21.155Z,2.97
2023-05-02T14:03:23.186Z,2.97
2023-05-02T14:06:25.546Z,3.15
2023-05-02T14:09:27.892Z,2.90
2023-05-02T14:12:29.990Z,2.80
2023-05-02T14:15:32.102Z,2.20
2023-05-02T14:18:34.161Z,2.45
2023-05-02T14:21:38.798Z,3.22
2023-05-02T14:24:41.171Z,2.70
2023-05-02T14:27:44.149Z,2.28
2023-05-02T14:30:48.998Z,2.90
2023-05-02T14:33:51.084Z,2.80
2023-05-02T14:36:53.219Z,3.22
2023-05-02T14:39:56.895Z,2.95
2023-05-02T14:42:59.446Z,2.92
2023-05-02T14:46:02.774Z,2.87
2023-05-02T14:49:04.879Z,2.65
2023-05-02T14:52:07.096Z,2.97
2023-05-02T14:55:09.236Z,2.63
2023-05-02T14:58:12.014Z,2.72
2023-05-02T15:01:17.874Z,2.80
2023-05-02T15:04:20.238Z,2.60
2023-05-02T15:07:22.576Z,2.60
2023-05-02T15:10:24.885Z,3.08
2023-05-02T15:13:27.112Z,2.65
2023-05-02T15:16:29.654Z,2.73
2023-05-02T15:19:31.896Z,2.92
2023-05-02T15:22:33.919Z,3.50
2023-05-02T15:25:36.298Z,2.63
2023-05-02T15:28:38.597Z,2.78
2023-05-02T15:31:40.839Z,3.30
2023-05-02T15:34:42.873Z,5.88
2023-05-02T15:37:45.121Z,5.15
2023-05-02T15:41:08.172Z,3.13
2023-05-02T15:44:10.311Z,2.75
2023-05-02T15:47:12.309Z,2.40
2023-05-02T15:50:14.855Z,2.80
2023-05-02T15:53:17.188Z,3.40
2023-05-02T15:56:21.353Z,3.40
2023-05-02T15:59:23.821Z,4.65
2023-05-02T16:02:26.161Z,3.83
2023-05-02T16:05:28.214Z,2.92
2023-05-02T16:08:30.329Z,3.25
2023-05-02T16:11:33.114Z,3.10
2023-05-02T16:14:35.200Z,3.30
2023-05-02T16:17:37.262Z,3.47
2023-05-02T16:20:39.868Z,3.75
2023-05-02T16:23:41.952Z,3.38
2023-05-02T16:26:44.068Z,3.42
2023-05-02T16:29:46.189Z,3.90
2023-05-02T16:32:48.425Z,3.67
2023-05-02T16:35:59.794Z,3.15
2023-05-02T16:39:01.835Z,3.78
2023-05-02T16:42:04.272Z,3.60
2023-05-02T16:45:07.222Z,4.65
2023-05-02T16:48:09.251Z,4.40
2023-05-02T16:51:13.824Z,4.10
2023-05-02T16:54:15.839Z,3.58
2023-05-02T16:57:21.569Z,3.65
2023-05-02T17:00:23.754Z,4.65
2023-05-02T17:03:25.845Z,4.00
2023-05-02T17:06:28.209Z,3.90
2023-05-02T17:09:30.199Z,4.75
2023-05-02T17:12:32.589Z,5.18
2023-05-02T17:15:40.367Z,4.55
2023-05-02T17:18:42.503Z,4.00
2023-05-02T17:21:44.534Z,3.90
2023-05-02T17:24:49.575Z,3.55
2023-05-02T17:27:51.919Z,3.50
2023-05-02T17:30:54.790Z,3.85
2023-05-02T17:33:56.898Z,3.90
2023-05-02T17:36:58.886Z,3.72
2023-05-02T17:40:05.477Z,3.67
2023-05-02T17:43:07.609Z,4.18
2023-05-02T17:46:10.257Z,4.03
2023-05-02T17:49:12.363Z,3.83
2023-05-02T17:52:15.152Z,4.03
2023-05-02T17:55:18.947Z,3.60
2023-05-02T17:58:21.327Z,7.00
2023-05-02T18:01:23.335Z,4.25
2023-05-02T18:04:25.522Z,4.53
2023-05-02T18:07:30.053Z,4.22
2023-05-02T18:10:35.947Z,4.38
2023-05-02T18:13:39.696Z,4.55
2023-05-02T18:16:47.035Z,4.78
2023-05-02T18:19:50.399Z,4.70
2023-05-02T18:22:52.492Z,4.10
2023-05-02T18:25:54.550Z,4.80
2023-05-02T18:28:57.461Z,6.32
2023-05-02T18:31:59.497Z,6.63
2023-05-02T18:35:02.234Z,10.00
2023-05-02T18:38:07.658Z,11.77
2023-05-02T18:41:10.137Z,9.70
2023-05-02T18:44:12.925Z,7.68
2023-05-02T18:47:17.052Z,7.00
2023-05-02T18:50:19.171Z,5.67
2023-05-02T18:53:22.874Z,6.13
2023-05-02T18:56:25.516Z,5.35
2023-05-02T18:59:27.496Z,5.28
2023-05-02T19:02:29.523Z,4.55
2023-05-02T19:05:31.672Z,4.30
2023-05-02T19:08:33.676Z,5.40
2023-05-02T19:11:36.784Z,7.65
2023-05-02T19:14:39.773Z,7.32
2023-05-02T19:17:43.485Z,5.63
2023-05-02T19:20:45.495Z,7.83
2023-05-02T19:23:47.590Z,7.60
2023-05-02T19:26:49.617Z,8.02
2023-05-02T19:29:54.550Z,7.70
2023-05-02T19:32:56.811Z,8.02
2023-05-02T19:35:58.853Z,6.97
2023-05-02T19:39:00.901Z,5.72
2023-05-02T19:42:03.412Z,7.15
2023-05-02T19:45:05.844Z,8.82
2023-05-02T19:48:07.956Z,9.18
2023-05-02T19:51:10.274Z,8.37
2023-05-02T19:54:12.381Z,8.88
2023-05-02T19:57:14.406Z,8.02
2023-05-02T20:00:16.514Z,7.70
2023-05-02T20:03:21.072Z,7.97
2023-05-02T20:06:23.262Z,7.70
2023-05-02T20:09:25.308Z,8.60
2023-05-02T20:12:27.414Z,8.57
2023-05-02T20:15:30.276Z,8.45
2023-05-02T20:18:32.330Z,9.07
2023-05-02T20:21:34.444Z,8.57
2023-05-02T20:24:36.506Z,8.77
2023-05-02T20:27:38.805Z,7.78
2023-05-02T20:30:42.128Z,7.68
2023-05-02T20:33:45.847Z,7.63
2023-05-02T20:36:48.335Z,7.93
2023-05-02T20:39:50.403Z,7.70
2023-05-02T20:42:52.838Z,7.53
2023-05-02T20:45:56.122Z,8.32
2023-05-02T20:48:59.505Z,7.70
2023-05-02T20:52:05.570Z,6.87
2023-05-02T20:55:08.050Z,6.70
2023-05-02T20:58:10.104Z,6.63
2023-05-02T21:01:12.289Z,5.88
2023-05-02T21:04:14.344Z,5.68
2023-05-02T21:07:16.495Z,6.10
2023-05-02T21:10:18.555Z,6.38
2023-05-02T21:13:20.713Z,5.78
2023-05-02T21:16:22.869Z,5.70
2023-05-02T21:19:25.500Z,5.47
2023-05-02T21:22:27.560Z,5.23
2023-05-02T21:25:29.538Z,5.68
2023-05-02T21:28:31.604Z,6.43
2023-05-02T21:31:33.701Z,5.68
2023-05-02T21:34:35.965Z,5.88
2023-05-02T21:37:38.033Z,5.23
2023-05-02T21:40:40.070Z,5.50
2023-05-02T21:43:42.082Z,6.38
2023-05-02T21:46:46.251Z,5.88
2023-05-02T21:49:48.353Z,6.47
2023-05-02T21:52:50.400Z,5.73
2023-05-02T21:55:53.642Z,5.75
2023-05-02T21:58:55.723Z,5.55
2023-05-02T22:01:57.853Z,6.05
2023-05-02T22:05:00.926Z,5.93
2023-05-02T22:08:03.121Z,6.20
2023-05-02T22:11:08.107Z,5.93
2023-05-02T22:14:10.600Z,6.13
2023-05-02T22:17:13.268Z,6.57
2023-05-02T22:20:15.356Z,6.93
2023-05-02T22:23:17.399Z,6.73
2023-05-02T22:26:19.408Z,7.30
2023-05-02T22:29:21.541Z,7.03
2023-05-02T22:32:23.742Z,5.80
2023-05-02T22:35:25.999Z,6.13
2023-05-02T22:38:28.147Z,5.93
2023-05-02T22:41:30.735Z,6.55
2023-05-02T22:44:35.789Z,6.50
2023-05-02T22:47:45.990Z,6.20
2023-05-02T22:50:48.674Z,7.38
2023-05-02T22:53:51.278Z,6.10
2023-05-02T22:56:53.491Z,6.32
2023-05-02T22:59:55.569Z,6.65
2023-05-02T23:02:57.664Z,6.28
2023-05-02T23:05:59.677Z,6.40
2023-05-02T23:09:01.716Z,6.07
2023-05-02T23:12:04.049Z,6.10
2023-05-02T23:15:06.998Z,6.38
2023-05-02T23:18:09.146Z,7.05
2023-05-02T23:21:14.604Z,6.10
2023-05-02T23:24:16.599Z,6.23
2023-05-02T23:27:18.591Z,5.70
2023-05-02T23:30:21.076Z,5.80
2023-05-02T23:33:23.165Z,5.68
2023-05-02T23:36:25.267Z,6.60
2023-05-02T23:39:27.556Z,5.40
2023-05-02T23:42:30.081Z,6.57
2023-05-02T23:45:32.094Z,7.32
2023-05-02T23:48:34.178Z,6.32
2023-05-02T23:51:37.849Z,6.30
2023-05-02T23:54:39.813Z,6.40
2023-05-02T23:57:41.887Z,7.13
